createdAt,value
2018-08-24T00:00:32.054Z,23.55
2018-08-24T00:03:02.382Z,23.50
2018-08-24T00:05:31.073Z,23.42
2018-08-24T00:08:00.325Z,23.37
2018-08-24T00:10:29.056Z,23.36
2018-08-24T00:12:57.652Z,23.30
2018-08-24T00:15:26.622Z,23.35
2018-08-24T00:17:55.498Z,23.27
2018-08-24T00:20:24.280Z,23.29
2018-08-24T00:22:52.942Z,23.20
2018-08-24T00:25:22.658Z,23.22
2018-08-24T00:27:51.368Z,23.22
2018-08-24T00:30:20.022Z,23.16
2018-08-24T00:32:48.679Z,23.15
2018-08-24T00:35:17.628Z,23.16
2018-08-24T00:37:46.908Z,23.21
2018-08-24T00:40:15.610Z,23.16
2018-08-24T00:42:44.385Z,23.11
2018-08-24T00:45:13.086Z,23.10
2018-08-24T00:47:41.973Z,23.05
2018-08-24T00:50:10.617Z,23.00
2018-08-24T00:52:39.577Z,22.96
2018-08-24T00:55:08.225Z,22.92
2018-08-24T00:57:37.999Z,22.92
2018-08-24T01:00:08.449Z,22.82
2018-08-24T01:02:44.166Z,22.73
2018-08-24T01:05:12.956Z,22.68
2018-08-24T01:07:46.656Z,22.67
2018-08-24T01:10:20.643Z,22.69
2018-08-24T01:12:50.065Z,22.64
2018-08-24T01:15:21.822Z,22.65
2018-08-24T01:17:55.628Z,22.69
2018-08-24T01:20:28.383Z,22.75
2018-08-24T01:22:57.346Z,22.77
2018-08-24T01:25:26.090Z,22.74
2018-08-24T01:27:54.694Z,22.79
2018-08-24T01:30:23.249Z,22.81
2018-08-24T01:32:51.948Z,22.85
2018-08-24T01:35:21.072Z,22.89
2018-08-24T01:37:49.819Z,22.89
2018-08-24T01:40:18.591Z,22.84
2018-08-24T01:42:47.673Z,22.83
2018-08-24T01:45:16.399Z,22.84
2018-08-24T01:47:45.177Z,22.85
2018-08-24T01:50:13.920Z,22.87
2018-08-24T01:52:42.538Z,22.87
2018-08-24T01:55:11.244Z,22.87
2018-08-24T01:57:40.780Z,22.82
2018-08-24T02:00:09.408Z,22.78
2018-08-24T02:02:38.080Z,22.75
2018-08-24T02:05:07.456Z,22.73
2018-08-24T02:07:37.003Z,22.70
2018-08-24T02:10:09.381Z,22.66
2018-08-24T02:12:43.234Z,22.59
2018-08-24T02:15:12.068Z,22.65
2018-08-24T02:17:45.913Z,22.76
2018-08-24T02:20:19.754Z,22.82
2018-08-24T02:22:54.505Z,22.89
2018-08-24T02:25:24.031Z,22.79
2018-08-24T02:27:54.727Z,22.72
2018-08-24T02:30:30.350Z,22.56
2018-08-24T02:32:59.891Z,22.58
2018-08-24T02:35:28.482Z,22.63
2018-08-24T02:37:57.160Z,22.60
2018-08-24T02:40:25.759Z,22.66
2018-08-24T02:42:54.526Z,22.71
2018-08-24T02:45:23.530Z,22.56
2018-08-24T02:47:53.455Z,22.51
2018-08-24T02:50:22.680Z,22.55
2018-08-24T02:52:51.600Z,22.49
2018-08-24T02:55:20.382Z,22.48
2018-08-24T02:57:49.075Z,22.43
2018-08-24T03:00:20.112Z,22.24
2018-08-24T03:02:48.807Z,22.21
2018-08-24T03:05:18.493Z,22.19
2018-08-24T03:07:47.316Z,22.14
2018-08-24T03:10:16.732Z,22.04
2018-08-24T03:12:45.929Z,21.92
2018-08-24T03:15:14.528Z,21.77
2018-08-24T03:17:48.466Z,21.79
2018-08-24T03:20:17.204Z,21.70
2018-08-24T03:22:46.092Z,21.70
2018-08-24T03:25:14.793Z,21.71
2018-08-24T03:27:43.578Z,21.72
2018-08-24T03:30:14.318Z,21.68
2018-08-24T03:32:43.101Z,21.75
2018-08-24T03:35:12.021Z,21.68
2018-08-24T03:37:40.677Z,21.58
2018-08-24T03:40:09.359Z,21.57
2018-08-24T03:42:38.039Z,21.56
2018-08-24T03:45:06.725Z,21.64
2018-08-24T03:47:35.453Z,21.59
2018-08-24T03:50:04.753Z,21.57
2018-08-24T03:52:34.812Z,21.62
2018-08-24T03:55:04.262Z,21.62
2018-08-24T03:57:32.829Z,21.56
2018-08-24T04:00:02.393Z,21.62
2018-08-24T04:02:30.924Z,21.68
2018-08-24T04:04:59.597Z,21.55
2018-08-24T04:07:28.446Z,21.42
2018-08-24T04:09:57.166Z,21.37
2018-08-24T04:12:26.270Z,21.34
2018-08-24T04:14:55.888Z,21.20
2018-08-24T04:17:29.820Z,21.06
2018-08-24T04:19:58.560Z,21.10
2018-08-24T04:22:28.137Z,21.15
2018-08-24T04:24:56.750Z,21.22
2018-08-24T04:27:25.354Z,21.16
2018-08-24T04:29:54.031Z,21.12
2018-08-24T04:32:22.818Z,20.96
2018-08-24T04:34:51.842Z,20.99
2018-08-24T04:37:21.099Z,20.97
2018-08-24T04:39:49.726Z,20.98
2018-08-24T04:42:20.561Z,20.84
2018-08-24T04:44:49.217Z,20.87
2018-08-24T04:47:18.048Z,20.82
2018-08-24T04:49:46.831Z,20.71
2018-08-24T04:52:15.415Z,20.69
2018-08-24T04:54:44.016Z,20.67
2018-08-24T04:57:12.579Z,20.67
2018-08-24T04:59:41.592Z,20.58
2018-08-24T05:02:11.231Z,20.58
2018-08-24T05:04:39.882Z,20.51
2018-08-24T05:07:08.492Z,20.35
2018-08-24T05:09:37.021Z,20.21
2018-08-24T05:12:07.141Z,20.19
2018-08-24T05:14:36.115Z,20.23
2018-08-24T05:17:04.701Z,20.27
2018-08-24T05:19:33.338Z,20.28
2018-08-24T05:22:01.954Z,20.41
2018-08-24T05:24:30.594Z,20.31
2018-08-24T05:26:59.135Z,20.31
2018-08-24T05:29:27.937Z,20.37
2018-08-24T05:31:56.665Z,20.35
2018-08-24T05:34:26.167Z,20.42
2018-08-24T05:36:54.752Z,20.53
2018-08-24T05:39:23.432Z,20.40
2018-08-24T05:41:52.037Z,20.36
2018-08-24T05:44:21.106Z,20.42
2018-08-24T05:46:49.695Z,20.36
2018-08-24T05:49:18.414Z,20.17
2018-08-24T05:51:47.659Z,20.11
2018-08-24T05:54:16.665Z,20.09
2018-08-24T05:56:45.464Z,20.07
2018-08-24T05:59:14.096Z,20.14
2018-08-24T06:01:43.964Z,20.21
2018-08-24T06:04:12.651Z,20.00
2018-08-24T06:06:41.794Z,20.06
2018-08-24T06:09:15.248Z,20.11
2018-08-24T06:11:44.439Z,19.95
2018-08-24T06:14:13.830Z,19.80
2018-08-24T06:16:50.546Z,19.65
2018-08-24T06:19:20.310Z,19.81
2018-08-24T06:21:49.290Z,19.93
2018-08-24T06:24:17.915Z,19.97
2018-08-24T06:26:46.419Z,20.02
2018-08-24T06:29:15.064Z,19.93
2018-08-24T06:31:43.652Z,19.70
2018-08-24T06:34:12.592Z,19.57
2018-08-24T06:36:41.855Z,19.46
2018-08-24T06:39:14.000Z,19.58
2018-08-24T06:41:43.934Z,19.45
2018-08-24T06:44:13.473Z,19.47
2018-08-24T06:46:42.468Z,19.64
2018-08-24T06:49:11.733Z,19.66
2018-08-24T06:51:40.973Z,19.74
2018-08-24T06:54:10.327Z,19.85
2018-08-24T06:56:40.434Z,19.96
2018-08-24T06:59:09.181Z,20.06
2018-08-24T07:01:37.859Z,20.01
2018-08-24T07:04:06.707Z,20.01
2018-08-24T07:06:35.448Z,20.01
2018-08-24T07:09:05.452Z,20.06
2018-08-24T07:11:34.648Z,20.07
2018-08-24T07:14:03.607Z,20.04
2018-08-24T07:16:32.133Z,20.19
2018-08-24T07:19:02.238Z,20.31
2018-08-24T07:21:31.096Z,20.27
2018-08-24T07:23:59.824Z,20.28
2018-08-24T07:26:29.288Z,20.32
2018-08-24T07:28:57.874Z,20.21
2018-08-24T07:31:27.884Z,20.26
2018-08-24T07:33:56.606Z,20.24
2018-08-24T07:36:25.611Z,20.10
2018-08-24T07:38:54.310Z,20.33
2018-08-24T07:41:22.819Z,20.46
2018-08-24T07:43:51.358Z,20.55
2018-08-24T07:46:20.558Z,20.67
2018-08-24T07:48:49.242Z,20.75
2018-08-24T07:51:17.838Z,20.90
2018-08-24T07:53:46.854Z,21.06
2018-08-24T07:56:15.544Z,21.03
2018-08-24T07:58:44.184Z,21.11
2018-08-24T08:01:13.094Z,21.10
2018-08-24T08:03:41.793Z,21.19
2018-08-24T08:06:11.472Z,21.31
2018-08-24T08:08:40.488Z,21.33
2018-08-24T08:11:09.680Z,21.30
2018-08-24T08:13:39.288Z,21.18
2018-08-24T08:16:07.869Z,21.35
2018-08-24T08:18:37.797Z,21.50
2018-08-24T08:21:07.129Z,21.40
2018-08-24T08:23:35.772Z,21.29
2018-08-24T08:26:04.416Z,21.40
2018-08-24T08:28:33.042Z,21.55
2018-08-24T08:31:02.585Z,21.50
2018-08-24T08:33:31.216Z,21.63
2018-08-24T08:36:00.202Z,21.66
2018-08-24T08:38:29.592Z,21.66
2018-08-24T08:40:58.995Z,21.58
2018-08-24T08:43:27.632Z,21.59
2018-08-24T08:45:56.277Z,21.53
2018-08-24T08:48:24.837Z,21.55
2018-08-24T08:50:54.548Z,21.63
2018-08-24T08:53:23.456Z,21.70
2018-08-24T08:55:53.031Z,21.79
2018-08-24T08:58:21.748Z,21.75
2018-08-24T09:00:50.422Z,21.81
2018-08-24T09:03:19.271Z,21.89
2018-08-24T09:05:47.794Z,21.89
2018-08-24T09:08:17.516Z,21.67
2018-08-24T09:10:46.398Z,21.75
2018-08-24T09:13:15.024Z,21.77
2018-08-24T09:15:47.415Z,21.89
2018-08-24T09:18:22.220Z,21.80
2018-08-24T09:20:56.224Z,21.80
2018-08-24T09:23:31.138Z,21.77
2018-08-24T09:26:05.006Z,21.85
2018-08-24T09:28:35.964Z,22.05
2018-08-24T09:31:22.326Z,22.13
2018-08-24T09:33:51.370Z,22.30
2018-08-24T09:36:21.093Z,22.33
2018-08-24T09:38:50.927Z,22.31
2018-08-24T09:41:20.189Z,22.16
2018-08-24T09:43:54.276Z,22.15
2018-08-24T09:46:28.034Z,22.10
2018-08-24T09:49:01.889Z,22.10
2018-08-24T09:51:30.453Z,22.18
2018-08-24T09:54:01.458Z,22.21
2018-08-24T09:56:30.872Z,22.23
2018-08-24T09:59:00.026Z,22.06
2018-08-24T10:05:33.773Z,21.74
2018-08-24T10:08:07.805Z,21.67
2018-08-24T10:10:36.379Z,21.64
2018-08-24T10:13:05.121Z,21.70
2018-08-24T10:15:33.699Z,21.65
2018-08-24T10:18:02.588Z,21.67
2018-08-24T10:20:31.267Z,21.57
2018-08-24T10:22:59.953Z,21.43
2018-08-24T10:25:28.672Z,20.83
2018-08-24T10:27:57.886Z,19.68
2018-08-24T10:30:26.418Z,19.07
2018-08-24T10:32:55.719Z,18.82
2018-08-24T10:35:24.388Z,18.49
2018-08-24T10:37:53.127Z,18.37
2018-08-24T10:40:21.711Z,18.36
2018-08-24T10:42:51.315Z,18.38
2018-08-24T10:45:20.373Z,18.40
2018-08-24T10:47:48.961Z,18.48
2018-08-24T10:50:17.491Z,18.47
2018-08-24T10:52:46.187Z,18.51
2018-08-24T10:55:17.065Z,18.40
2018-08-24T11:00:55.359Z,18.47
2018-08-24T11:03:24.819Z,18.58
2018-08-24T11:05:53.608Z,18.77
2018-08-24T11:08:22.276Z,18.80
2018-08-24T11:10:50.893Z,18.93
2018-08-24T11:13:26.353Z,18.90
2018-08-24T11:15:54.894Z,18.78
2018-08-24T11:18:24.568Z,18.79
2018-08-24T11:20:53.639Z,18.81
2018-08-24T11:23:22.308Z,19.08
2018-08-24T11:25:52.343Z,19.33
2018-08-24T11:28:22.269Z,19.39
2018-08-24T11:30:50.888Z,19.63
2018-08-24T11:33:19.476Z,19.89
2018-08-24T11:35:49.082Z,20.02
2018-08-24T11:38:17.921Z,20.08
2018-08-24T11:40:47.268Z,19.98
2018-08-24T11:43:16.724Z,20.00
2018-08-24T11:45:45.734Z,20.00
2018-08-24T11:48:15.431Z,19.98
2018-08-24T11:53:13.734Z,20.10
2018-08-24T11:55:42.416Z,20.15
2018-08-24T11:58:11.285Z,20.12
2018-08-24T12:00:40.439Z,20.23
2018-08-24T12:03:11.229Z,20.33
2018-08-24T12:05:39.826Z,20.55
2018-08-24T12:08:08.554Z,20.73
2018-08-24T12:10:44.043Z,20.98
2018-08-24T12:13:12.743Z,21.20
2018-08-24T12:15:42.423Z,21.22
2018-08-24T12:18:12.107Z,21.37
2018-08-24T12:20:41.458Z,21.63
2018-08-24T12:23:10.237Z,21.74
2018-08-24T12:25:38.868Z,21.67
2018-08-24T12:28:07.608Z,21.65
2018-08-24T12:30:37.584Z,21.64
2018-08-24T12:33:06.205Z,21.80
2018-08-24T12:35:34.910Z,22.03
2018-08-24T12:38:04.311Z,22.17
2018-08-24T12:40:32.942Z,22.25
2018-08-24T12:43:02.028Z,22.39
2018-08-24T12:45:30.914Z,22.62
2018-08-24T12:48:03.559Z,22.92
2018-08-24T12:50:33.810Z,23.20
2018-08-24T12:53:03.936Z,23.38
2018-08-24T12:55:33.045Z,23.31
2018-08-24T12:58:03.545Z,23.02
2018-08-24T13:00:32.304Z,23.27
2018-08-24T13:03:01.845Z,23.20
2018-08-24T13:05:30.579Z,23.20
2018-08-24T13:07:59.416Z,23.36
2018-08-24T13:10:32.815Z,23.40
2018-08-24T13:13:01.901Z,23.19
2018-08-24T13:15:31.352Z,22.92
2018-08-24T13:18:03.289Z,23.08
2018-08-24T13:20:32.152Z,23.31
2018-08-24T13:23:00.754Z,23.49
2018-08-24T13:25:30.974Z,23.43
2018-08-24T13:27:59.898Z,23.45
2018-08-24T13:30:28.562Z,23.35
2018-08-24T13:32:57.145Z,23.49
2018-08-24T13:35:26.008Z,23.53
2018-08-24T13:37:54.777Z,23.81
2018-08-24T13:40:23.457Z,24.10
2018-08-24T13:42:52.649Z,24.35
2018-08-24T13:45:21.345Z,24.20
2018-08-24T13:47:50.938Z,23.96
2018-08-24T13:50:19.497Z,23.88
2018-08-24T13:52:48.394Z,23.88
2018-08-24T13:55:17.089Z,23.86
2018-08-24T13:57:45.829Z,23.86
2018-08-24T14:00:14.707Z,23.62
2018-08-24T14:02:44.287Z,23.63
2018-08-24T14:05:13.592Z,23.75
2018-08-24T14:07:42.788Z,23.76
2018-08-24T14:10:12.782Z,23.55
2018-08-24T14:12:41.894Z,23.60
2018-08-24T14:15:10.855Z,23.84
2018-08-24T14:17:39.499Z,23.78
2018-08-24T14:20:08.663Z,23.85
2018-08-24T14:22:38.329Z,23.87
2018-08-24T14:25:07.959Z,24.01
2018-08-24T14:27:36.626Z,24.17
2018-08-24T14:30:07.385Z,24.14
2018-08-24T14:32:36.155Z,24.38
2018-08-24T14:35:05.058Z,24.38
2018-08-24T14:37:34.332Z,24.32
2018-08-24T14:40:04.571Z,23.96
2018-08-24T14:42:33.301Z,23.97
2018-08-24T14:45:02.349Z,24.12
2018-08-24T14:47:31.070Z,24.19
2018-08-24T14:49:59.935Z,23.89
2018-08-24T14:52:28.718Z,23.61
2018-08-24T14:54:59.829Z,23.43
2018-08-24T14:57:29.290Z,23.26
2018-08-24T15:00:00.546Z,22.95
2018-08-24T15:02:29.214Z,22.75
2018-08-24T15:04:59.304Z,22.83
2018-08-24T15:07:28.245Z,22.98
2018-08-24T15:09:57.598Z,23.10
2018-08-24T15:12:26.388Z,23.14
2018-08-24T15:14:56.729Z,22.82
2018-08-24T15:17:25.566Z,22.70
2018-08-24T15:19:54.379Z,22.77
2018-08-24T15:22:23.614Z,22.81
2018-08-24T15:24:52.188Z,22.65
2018-08-24T15:27:20.983Z,22.50
2018-08-24T15:29:49.685Z,22.38
2018-08-24T15:32:18.806Z,22.38
2018-08-24T15:34:47.493Z,22.36
2018-08-24T15:37:16.137Z,22.46
2018-08-24T15:39:45.102Z,22.50
2018-08-24T15:42:14.218Z,22.37
2018-08-24T15:44:43.416Z,22.37
2018-08-24T15:47:12.627Z,22.31
2018-08-24T15:49:41.285Z,22.21
2018-08-24T15:52:10.082Z,22.16
2018-08-24T15:54:38.917Z,22.12
2018-08-24T15:57:07.731Z,21.94
2018-08-24T15:59:36.537Z,21.93
2018-08-24T16:05:06.797Z,21.93
2018-08-24T16:07:39.758Z,21.93
2018-08-24T16:10:11.044Z,21.96
2018-08-24T16:12:41.005Z,22.01
2018-08-24T16:17:37.700Z,22.01
2018-08-24T16:20:07.722Z,22.07
2018-08-24T16:22:36.328Z,22.29
2018-08-24T16:25:06.156Z,22.32
2018-08-24T16:27:36.312Z,22.27
2018-08-24T16:30:06.847Z,22.41
2018-08-24T16:32:36.194Z,22.46
2018-08-24T16:35:04.897Z,22.08
2018-08-24T16:37:33.626Z,21.88
2018-08-24T16:40:03.017Z,21.72
2018-08-24T16:42:32.069Z,21.63
2018-08-24T16:45:00.912Z,21.60
2018-08-24T16:47:29.895Z,21.53
2018-08-24T16:49:58.604Z,21.51
2018-08-24T16:52:27.394Z,21.52
2018-08-24T16:54:56.041Z,21.42
2018-08-24T16:57:26.180Z,21.45
2018-08-24T16:59:54.845Z,21.45
2018-08-24T17:02:23.913Z,21.61
2018-08-24T17:04:53.065Z,21.68
2018-08-24T17:07:23.119Z,21.63
2018-08-24T17:09:51.716Z,21.59
2018-08-24T17:12:25.702Z,21.49
2018-08-24T17:14:54.415Z,21.40
2018-08-24T17:17:23.215Z,21.39
2018-08-24T17:19:52.845Z,21.33
2018-08-24T17:22:21.395Z,21.18
2018-08-24T17:24:50.202Z,21.13
2018-08-24T17:27:19.997Z,21.07
2018-08-24T17:29:48.911Z,20.96
2018-08-24T17:32:17.602Z,20.96
2018-08-24T17:34:46.220Z,20.87
2018-08-24T17:37:14.901Z,20.89
2018-08-24T17:39:44.031Z,20.69
2018-08-24T17:42:13.369Z,20.47
2018-08-24T17:44:43.021Z,20.51
2018-08-24T17:47:11.809Z,20.40
2018-08-24T17:49:40.500Z,20.21
2018-08-24T17:52:09.650Z,20.07
2018-08-24T17:54:38.859Z,20.17
2018-08-24T17:57:07.861Z,20.23
2018-08-24T17:59:36.553Z,20.27
2018-08-24T18:02:05.473Z,20.28
2018-08-24T18:04:34.414Z,20.31
2018-08-24T18:07:03.337Z,20.25
2018-08-24T18:09:33.228Z,20.26
2018-08-24T18:12:02.062Z,20.25
2018-08-24T18:14:30.687Z,20.26
2018-08-24T18:16:59.438Z,20.27
2018-08-24T18:19:29.424Z,20.10
2018-08-24T18:21:59.508Z,20.07
2018-08-24T18:24:33.663Z,20.09
2018-08-24T18:27:06.113Z,20.12
2018-08-24T18:29:34.818Z,20.24
2018-08-24T18:32:04.632Z,20.23
2018-08-24T18:34:34.089Z,20.19
2018-08-24T18:37:03.446Z,20.12
2018-08-24T18:39:33.318Z,20.17
2018-08-24T18:42:03.259Z,20.08
2018-08-24T18:44:33.359Z,20.06
2018-08-24T18:47:03.541Z,20.11
2018-08-24T18:49:36.867Z,20.09
2018-08-24T18:52:05.556Z,20.09
2018-08-24T18:54:34.614Z,20.08
2018-08-24T18:57:04.092Z,20.07
2018-08-24T18:59:34.040Z,19.95
2018-08-24T19:02:04.468Z,19.98
2018-08-24T19:04:34.529Z,20.05
2018-08-24T19:07:03.969Z,20.02
2018-08-24T19:09:34.964Z,19.92
2018-08-24T19:12:11.036Z,19.89
2018-08-24T19:14:39.669Z,19.60
2018-08-24T19:17:14.002Z,19.41
2018-08-24T19:19:47.877Z,19.45
2018-08-24T19:22:16.469Z,19.43
2018-08-24T19:24:45.519Z,19.53
2018-08-24T19:27:15.936Z,19.63
2018-08-24T19:29:51.737Z,19.62
2018-08-24T19:32:24.700Z,19.64
2018-08-24T19:34:53.732Z,19.63
2018-08-24T19:37:25.105Z,19.57
2018-08-24T19:40:00.376Z,19.56
2018-08-24T19:42:32.434Z,19.62
2018-08-24T19:45:01.632Z,19.61
2018-08-24T19:47:35.944Z,19.62
2018-08-24T19:50:04.686Z,19.61
2018-08-24T19:52:33.604Z,19.57
2018-08-24T19:55:02.982Z,19.53
2018-08-24T19:57:40.852Z,19.46
2018-08-24T20:00:09.466Z,19.43
2018-08-24T20:02:38.041Z,19.42
2018-08-24T20:05:06.877Z,19.39
2018-08-24T20:07:40.670Z,19.39
2018-08-24T20:10:11.785Z,19.46
2018-08-24T20:12:40.519Z,19.39
2018-08-24T20:15:14.388Z,19.29
2018-08-24T20:17:43.012Z,19.34
2018-08-24T20:20:11.658Z,19.34
2018-08-24T20:22:40.801Z,19.33
2018-08-24T20:25:09.531Z,19.36
2018-08-24T20:27:40.674Z,19.36
2018-08-24T20:30:09.509Z,19.33
2018-08-24T20:32:38.254Z,19.39
2018-08-24T20:35:07.436Z,19.45
2018-08-24T20:37:36.204Z,19.43
2018-08-24T20:40:07.255Z,19.34
2018-08-24T20:42:36.884Z,19.27
2018-08-24T20:45:05.620Z,19.32
2018-08-24T20:47:34.161Z,19.26
2018-08-24T20:50:02.811Z,19.26
2018-08-24T20:52:31.414Z,19.21
2018-08-24T20:55:00.093Z,19.16
2018-08-24T20:57:29.060Z,19.19
2018-08-24T20:59:57.624Z,19.16
2018-08-24T21:02:26.544Z,19.14
2018-08-24T21:04:55.280Z,19.18
2018-08-24T21:07:23.889Z,19.13
2018-08-24T21:09:52.534Z,19.00
2018-08-24T21:12:21.340Z,19.03
2018-08-24T21:14:50.016Z,18.98
2018-08-24T21:17:18.583Z,18.98
2018-08-24T21:19:47.160Z,18.96
2018-08-24T21:22:16.225Z,18.99
2018-08-24T21:24:44.961Z,19.04
2018-08-24T21:27:13.667Z,18.97
2018-08-24T21:29:42.343Z,18.91
2018-08-24T21:32:11.264Z,18.89
2018-08-24T21:34:40.462Z,18.90
2018-08-24T21:37:13.805Z,18.92
2018-08-24T21:39:46.742Z,18.90
2018-08-24T21:42:28.577Z,18.82
2018-08-24T21:44:57.239Z,18.73
2018-08-24T21:47:25.800Z,18.71
2018-08-24T21:49:54.311Z,18.76
2018-08-24T21:52:23.031Z,18.82
2018-08-24T21:54:51.605Z,18.88
2018-08-24T21:57:20.177Z,18.91
2018-08-24T21:59:49.034Z,18.89
2018-08-24T22:02:17.562Z,18.87
2018-08-24T22:04:46.778Z,18.86
2018-08-24T22:07:15.502Z,18.81
2018-08-24T22:09:44.174Z,18.82
2018-08-24T22:12:13.027Z,18.80
2018-08-24T22:14:42.054Z,18.82
2018-08-24T22:17:10.778Z,18.80
2018-08-24T22:19:39.495Z,18.84
2018-08-24T22:22:08.467Z,18.80
2018-08-24T22:24:37.307Z,18.83
2018-08-24T22:27:06.066Z,18.82
2018-08-24T22:29:34.725Z,18.82
2018-08-24T22:32:04.017Z,18.81
2018-08-24T22:34:33.405Z,18.80
2018-08-24T22:37:02.301Z,18.78
2018-08-24T22:39:31.016Z,18.72
2018-08-24T22:41:59.682Z,18.71
2018-08-24T22:44:28.177Z,18.63
2018-08-24T22:46:56.758Z,18.58
2018-08-24T22:49:25.313Z,18.54
2018-08-24T22:51:54.524Z,18.57
2018-08-24T22:54:23.125Z,18.65
2018-08-24T22:56:51.695Z,18.64
2018-08-24T22:59:20.268Z,18.61
2018-08-24T23:01:48.809Z,18.57
2018-08-24T23:04:17.560Z,18.52
2018-08-24T23:06:46.091Z,18.49
2018-08-24T23:09:14.703Z,18.44
2018-08-24T23:11:43.217Z,18.40
2018-08-24T23:14:11.898Z,18.34
2018-08-24T23:16:41.522Z,18.36
2018-08-24T23:19:10.060Z,18.26
2018-08-24T23:21:38.628Z,18.15
2018-08-24T23:24:07.215Z,18.16
2018-08-24T23:26:36.489Z,18.16
2018-08-24T23:29:05.255Z,18.16
2018-08-24T23:31:33.946Z,18.18
2018-08-24T23:34:03.638Z,18.15
2018-08-24T23:36:32.348Z,18.14
2018-08-24T23:39:01.986Z,18.18
2018-08-24T23:41:30.596Z,18.18
2018-08-24T23:43:59.354Z,18.10
2018-08-24T23:46:28.495Z,18.02
2018-08-24T23:48:57.672Z,18.01
2018-08-24T23:51:26.381Z,17.98
2018-08-24T23:53:55.710Z,18.02
2018-08-24T23:56:25.291Z,17.97
2018-08-24T23:58:53.867Z,18.00
